Startpagina
METAR-TAF:

METAR-TAF

Vliegvelden :

Cuenca, Ecuador

breedte: 02-53-22S, lengte: 078-59-04W, hoogte: 2532 m

Actueel weer

Dit bericht is 59 minuten geleden gemaakt, om 01:00 UTC
Wind 1 kt uit het oosten
Temperatuur 14°C
Vochtigheid 100%
Druk 1025 hPa
Zicht 10 km of meer
Geheel bewolkt op 4000 ft

METAR: SECU 310100Z 10001KT 9999 OVC040 14/14 Q1025

Tijdstip: 20:59 (01:59 UTC)


TAF: ontbreekt

Waarnemingen en weersverwachtingen van meer dan 4000 vliegvelden (METAR en TAF).

De beschikbare stations zijn de gele en rode punten op de kaart.

Ga met uw muis naar het station om de naam te zien.

Klik dan om waarnemingen en weersverwachtingen te zien.

kaart wijzigen: klik op de groene knoppen met een zwart kruis om in te zoomen, op de groene knop met een streepje om uit te zoomen of op de groene pijlen voor aangrenzende kaarten.


METAR-TAF: